Time;durP1;ratioP1;P1;durP2;ratioP2;P2;SDS_P1;SDS_P2;PMS_P1;PMS_P2;Temp;Humidity;BMP_temperature;BMP_pressure;BME280_temperature;BME280_humidity;BME280_pressure;Samples;Min_cycle;Max_cycle;Signal;HPM_P1;HPM_P2
2023/06/13 00:01:02;;;;;;;2.58;2.47;;;21.20;72.20;;;;;;5001097;28;20058;-75
2023/06/13 00:03:29;;;;;;;3.08;2.97;;;21.20;72.20;;;;;;5001688;28;20080;-75
2023/06/13 00:05:55;;;;;;;3.00;2.90;;;21.30;72.10;;;;;;5001941;28;20042;-75
2023/06/13 00:08:21;;;;;;;3.25;3.05;;;21.20;72.10;;;;;;5000775;28;20411;-76
2023/06/13 00:10:50;;;;;;;3.20;3.05;;;21.20;72.40;;;;;;5001404;28;20103;-75
2023/06/13 00:13:17;;;;;;;2.70;2.60;;;21.20;72.50;;;;;;5001138;28;20050;-75
2023/06/13 00:15:53;;;;;;;2.30;2.20;;;21.20;72.50;;;;;;4985149;28;20046;-75
2023/06/13 00:18:19;;;;;;;2.63;2.53;;;21.20;72.60;;;;;;5000849;28;20758;-75
2023/06/13 00:20:45;;;;;;;2.55;2.45;;;21.10;72.70;;;;;;4985168;28;20042;-75
2023/06/13 00:23:12;;;;;;;2.75;2.65;;;21.10;72.80;;;;;;4986983;28;20521;-77
2023/06/13 00:25:38;;;;;;;3.08;2.97;;;21.20;72.40;;;;;;5002374;28;20120;-77
2023/06/13 00:28:03;;;;;;;2.70;2.60;;;21.20;72.30;;;;;;5016490;28;20521;-77
2023/06/13 00:30:30;;;;;;;2.95;2.75;;;21.20;72.60;;;;;;5015976;28;20188;-78
2023/06/13 00:32:55;;;;;;;2.58;2.47;;;21.20;72.40;;;;;;4999307;28;20173;-78
2023/06/13 00:35:21;;;;;;;2.55;2.45;;;21.20;72.50;;;;;;5000346;28;20125;-78
2023/06/13 00:37:54;;;;;;;2.55;2.45;;;21.10;72.80;;;;;;4968685;28;20073;-77
2023/06/13 00:40:20;;;;;;;2.88;2.78;;;21.10;72.90;;;;;;5000436;28;20062;-78
2023/06/13 00:42:46;;;;;;;2.65;2.55;;;21.20;72.40;;;;;;5000635;28;20133;-77
2023/06/13 00:45:27;;;;;;;2.83;2.72;;;21.20;72.50;;;;;;5013038;28;20995;-75
2023/06/13 00:47:56;;;;;;;2.40;2.30;;;21.20;72.50;;;;;;5011544;28;20526;-77
2023/06/13 00:50:28;;;;;;;2.55;2.45;;;21.20;72.50;;;;;;4998098;28;20034;-77
2023/06/13 00:53:10;;;;;;;2.63;2.53;;;21.10;72.70;;;;;;4985780;28;20141;-77
2023/06/13 00:55:36;;;;;;;3.20;3.00;;;21.10;72.60;;;;;;4998667;28;20052;-77
2023/06/13 00:58:06;;;;;;;2.80;2.70;;;21.20;72.60;;;;;;4996790;28;20416;-77
2023/06/13 01:00:33;;;;;;;2.45;2.35;;;21.00;73.00;;;;;;4997391;28;20038;-77
2023/06/13 01:02:58;;;;;;;2.65;2.55;;;21.00;73.00;;;;;;5000234;28;20029;-77
2023/06/13 01:05:28;;;;;;;2.10;2.00;;;21.00;72.80;;;;;;5014625;28;20049;-78
2023/06/13 01:07:57;;;;;;;2.33;2.22;;;21.00;72.80;;;;;;5001556;28;20294;-78
2023/06/13 01:10:27;;;;;;;2.80;2.70;;;21.10;73.60;;;;;;4986762;28;20030;-78
2023/06/13 01:13:09;;;;;;;2.50;2.40;;;21.10;72.70;;;;;;4983022;28;20102;-78
2023/06/13 01:15:38;;;;;;;2.60;2.50;;;21.10;72.60;;;;;;4984657;28;20030;-78
2023/06/13 01:18:05;;;;;;;2.40;2.30;;;21.10;72.60;;;;;;4998773;28;20041;-78
2023/06/13 01:20:34;;;;;;;2.92;2.83;;;21.10;72.60;;;;;;4984949;28;20053;-78
2023/06/13 01:23:06;;;;;;;2.40;2.30;;;21.10;72.70;;;;;;5011127;28;20064;-78
2023/06/13 01:26:36;;;;;;;2.40;2.30;;;21.20;72.60;;;;;;4999821;28;20054;-77
2023/06/13 01:29:03;;;;;;;2.20;2.10;;;21.10;72.70;;;;;;4979635;28;20034;-77
2023/06/13 01:31:29;;;;;;;2.15;2.05;;;21.10;72.60;;;;;;4946538;28;20181;-77
2023/06/13 01:33:54;;;;;;;2.40;2.30;;;21.00;73.10;;;;;;4944298;28;20046;-77
2023/06/13 01:36:20;;;;;;;2.08;1.98;;;21.00;73.20;;;;;;4962695;28;20069;-77
2023/06/13 01:38:46;;;;;;;2.10;2.00;;;21.00;73.20;;;;;;4965508;28;20127;-77
2023/06/13 01:41:11;;;;;;;1.73;1.73;;;21.10;73.00;;;;;;4964512;28;20042;-77
2023/06/13 01:43:37;;;;;;;1.90;1.80;;;21.10;72.80;;;;;;4944787;28;20042;-77
2023/06/13 01:46:15;;;;;;;1.80;1.70;;;21.10;72.70;;;;;;4965651;28;20046;-77
2023/06/13 01:49:05;;;;;;;1.95;1.85;;;21.00;72.50;;;;;;4966210;28;20068;-77
2023/06/13 01:52:07;;;;;;;1.70;1.60;;;21.10;72.50;;;;;;4983144;28;20038;-77
2023/06/13 01:54:35;;;;;;;2.00;1.90;;;21.00;72.70;;;;;;4967374;28;20116;-76
2023/06/13 01:57:02;;;;;;;1.98;1.88;;;21.00;72.70;;;;;;4968084;28;20045;-77
2023/06/13 01:59:28;;;;;;;1.95;1.85;;;21.00;72.80;;;;;;4935915;28;20086;-77
2023/06/13 02:01:55;;;;;;;2.40;2.05;;;21.00;72.40;;;;;;4967657;28;20034;-77
2023/06/13 02:04:20;;;;;;;1.75;1.65;;;21.00;72.70;;;;;;5004376;28;20479;-77
2023/06/13 02:06:46;;;;;;;1.67;1.63;;;21.00;72.30;;;;;;5003126;28;20103;-77
2023/06/13 02:09:11;;;;;;;1.73;1.70;;;21.10;72.50;;;;;;4987745;28;20104;-77
2023/06/13 02:11:37;;;;;;;1.70;1.70;;;20.90;72.50;;;;;;5004241;28;20046;-77
2023/06/13 02:14:03;;;;;;;2.00;1.90;;;20.90;72.70;;;;;;4999052;28;20050;-77
2023/06/13 02:16:30;;;;;;;1.65;1.55;;;21.00;72.70;;;;;;4988167;28;20127;-77
2023/06/13 02:18:59;;;;;;;1.60;1.50;;;20.90;72.70;;;;;;4966942;28;20068;-77
2023/06/13 02:21:25;;;;;;;1.80;1.70;;;20.90;72.80;;;;;;5000082;28;20042;-78
2023/06/13 02:23:50;;;;;;;1.88;1.83;;;20.90;72.90;;;;;;5005415;28;20072;-78
2023/06/13 02:26:16;;;;;;;2.00;1.90;;;21.00;72.80;;;;;;5001245;28;20071;-78
2023/06/13 02:28:42;;;;;;;2.30;2.20;;;21.00;72.50;;;;;;4999497;28;20399;-77
2023/06/13 02:31:08;;;;;;;1.60;1.60;;;21.00;72.40;;;;;;5014297;28;20504;-77
2023/06/13 02:33:36;;;;;;;1.83;1.73;;;21.00;72.50;;;;;;5000308;28;20052;-77
2023/06/13 02:36:02;;;;;;;1.60;1.60;;;20.90;72.70;;;;;;5003677;28;20045;-77
2023/06/13 02:38:27;;;;;;;1.70;1.60;;;20.90;72.60;;;;;;4987482;28;20041;-77
2023/06/13 02:40:54;;;;;;;1.65;1.65;;;20.90;72.60;;;;;;5002356;28;20030;-76
2023/06/13 02:43:20;;;;;;;1.70;1.60;;;20.80;72.80;;;;;;4999827;28;20037;-77
2023/06/13 02:45:45;;;;;;;1.67;1.60;;;20.80;72.80;;;;;;5001716;28;20133;-77
2023/06/13 02:48:11;;;;;;;1.88;1.77;;;20.90;72.80;;;;;;5000814;28;20054;-77
2023/06/13 02:50:37;;;;;;;1.52;1.52;;;20.90;72.90;;;;;;5002402;28;29693;-77
2023/06/13 02:53:02;;;;;;;1.85;1.77;;;20.90;73.00;;;;;;4987761;28;20407;-77
2023/06/13 02:55:29;;;;;;;1.52;1.52;;;20.90;73.10;;;;;;5001628;28;20042;-77
2023/06/13 02:57:54;;;;;;;1.77;1.67;;;20.90;73.00;;;;;;5003137;28;20462;-77
2023/06/13 03:00:20;;;;;;;1.70;1.63;;;20.80;73.20;;;;;;4997781;28;20050;-77
2023/06/13 03:02:45;;;;;;;1.52;1.52;;;20.80;73.20;;;;;;5019109;28;20046;-77
2023/06/13 03:05:11;;;;;;;1.75;1.65;;;20.80;74.10;;;;;;4999835;28;20049;-77
2023/06/13 03:07:42;;;;;;;1.30;1.30;;;20.80;73.20;;;;;;5003765;28;20512;-78
2023/06/13 03:10:08;;;;;;;2.08;1.98;;;20.90;73.90;;;;;;4986594;28;20046;-77
2023/06/13 03:12:34;;;;;;;1.35;1.35;;;20.90;72.80;;;;;;5000198;28;20133;-77
2023/06/13 03:15:00;;;;;;;1.50;1.42;;;20.90;72.70;;;;;;5002912;28;20408;-77
2023/06/13 03:17:25;;;;;;;1.60;1.60;;;21.00;72.70;;;;;;5003550;28;20511;-77
2023/06/13 03:19:51;;;;;;;1.80;1.70;;;21.00;72.60;;;;;;4998683;28;20128;-78
2023/06/13 03:22:17;;;;;;;1.80;1.70;;;20.90;72.70;;;;;;5000683;28;20100;-78
2023/06/13 03:24:44;;;;;;;2.30;2.20;;;20.90;72.80;;;;;;5001235;28;20132;-77
2023/06/13 03:27:12;;;;;;;2.13;2.03;;;20.90;72.50;;;;;;5001270;28;20471;-78
2023/06/13 03:29:41;;;;;;;1.95;1.85;;;20.80;72.90;;;;;;5001434;28;20060;-77
2023/06/13 03:32:10;;;;;;;2.25;1.90;;;20.80;73.00;;;;;;5020229;28;20471;-77
2023/06/13 03:34:38;;;;;;;1.80;1.70;;;20.80;73.10;;;;;;5017305;28;20070;-77
2023/06/13 03:37:10;;;;;;;1.80;1.70;;;20.80;73.10;;;;;;5021733;28;20054;-77
2023/06/13 03:39:35;;;;;;;1.95;1.85;;;20.90;72.70;;;;;;5004979;28;20169;-77
2023/06/13 03:42:01;;;;;;;1.75;1.65;;;20.90;72.60;;;;;;4990087;28;20543;-78
2023/06/13 03:44:27;;;;;;;1.63;1.63;;;20.90;72.60;;;;;;5013809;28;20507;-78
2023/06/13 03:46:54;;;;;;;1.70;1.60;;;20.90;72.60;;;;;;5007282;28;20054;-78
2023/06/13 03:49:20;;;;;;;1.95;1.85;;;20.80;72.90;;;;;;4988681;28;20034;-78
2023/06/13 03:51:45;;;;;;;1.67;1.67;;;20.80;72.80;;;;;;4991356;28;20047;-77
2023/06/13 03:54:11;;;;;;;1.80;1.70;;;20.80;72.80;;;;;;5005297;28;20034;-77
2023/06/13 03:56:37;;;;;;;1.83;1.73;;;20.80;73.00;;;;;;5025700;28;20049;-78
2023/06/13 03:59:02;;;;;;;1.90;1.80;;;20.90;73.00;;;;;;4990730;28;20601;-77
2023/06/13 04:01:28;;;;;;;1.85;1.75;;;20.90;72.70;;;;;;5003971;28;20046;-77
2023/06/13 04:03:54;;;;;;;2.25;2.15;;;20.80;72.80;;;;;;5007850;28;20057;-77
2023/06/13 04:06:20;;;;;;;2.15;2.05;;;20.80;72.80;;;;;;5005147;28;20058;-78
2023/06/13 04:08:45;;;;;;;2.13;2.03;;;20.90;72.60;;;;;;5000030;28;20049;-77
2023/06/13 04:11:11;;;;;;;2.00;1.90;;;20.90;72.80;;;;;;5003499;28;20092;-77
2023/06/13 04:13:36;;;;;;;2.20;2.10;;;20.80;72.90;;;;;;5000054;28;20053;-77
2023/06/13 04:16:02;;;;;;;1.98;1.88;;;20.80;73.00;;;;;;5004958;28;20063;-77
2023/06/13 04:18:29;;;;;;;2.28;2.17;;;20.70;73.00;;;;;;5001984;28;20045;-77
2023/06/13 04:20:55;;;;;;;2.08;1.98;;;20.80;72.80;;;;;;5005589;28;20054;-77
2023/06/13 04:23:21;;;;;;;2.15;2.05;;;20.90;72.60;;;;;;5003707;28;20057;-77
2023/06/13 04:25:47;;;;;;;2.35;2.25;;;20.90;72.60;;;;;;5001151;28;20050;-79
2023/06/13 04:28:13;;;;;;;4.45;4.05;;;20.80;72.80;;;;;;5003282;28;20033;-79
2023/06/13 04:30:46;;;;;;;4.20;4.00;;;20.10;76.00;;;;;;5002134;28;20042;-79
2023/06/13 04:33:16;;;;;;;4.20;4.00;;;19.60;77.30;;;;;;4987961;28;20046;-79
2023/06/13 04:35:44;;;;;;;4.70;4.40;;;19.30;78.70;;;;;;5005017;28;20088;-79
2023/06/13 04:38:13;;;;;;;4.90;4.60;;;19.10;79.30;;;;;;4973649;28;20074;-79
2023/06/13 04:40:39;;;;;;;6.38;4.30;;;19.20;79.40;;;;;;4993324;28;20037;-78
2023/06/13 04:43:05;;;;;;;5.57;5.28;;;19.00;79.80;;;;;;4987999;28;20030;-79
2023/06/13 04:45:35;;;;;;;5.03;4.68;;;19.10;79.50;;;;;;5001167;28;20034;-77
2023/06/13 04:48:03;;;;;;;5.55;5.25;;;19.10;79.50;;;;;;5020906;28;20034;-77
2023/06/13 04:50:29;;;;;;;4.90;4.60;;;18.90;80.00;;;;;;4991153;28;20053;-78
2023/06/13 04:52:55;;;;;;;4.68;4.38;;;18.90;80.30;;;;;;5003554;28;20041;-78
2023/06/13 04:55:22;;;;;;;4.60;4.30;;;18.90;80.60;;;;;;5003647;28;20145;-78
2023/06/13 04:57:47;;;;;;;5.53;5.10;;;18.80;80.60;;;;;;5005804;28;20073;-77
2023/06/13 05:00:15;;;;;;;5.20;4.75;;;18.80;81.10;;;;;;5016879;28;20630;-77
2023/06/13 05:02:42;;;;;;;4.65;4.43;;;18.70;81.20;;;;;;5001446;28;20082;-77
2023/06/13 05:05:08;;;;;;;4.63;4.18;;;18.70;81.10;;;;;;5003191;28;20045;-77
2023/06/13 05:07:39;;;;;;;4.38;4.18;;;18.80;81.00;;;;;;5014565;28;20080;-77
2023/06/13 05:10:05;;;;;;;4.15;3.95;;;18.70;81.20;;;;;;5002294;28;20053;-77
2023/06/13 05:12:30;;;;;;;4.45;4.15;;;18.50;81.60;;;;;;5001149;28;20042;-77
2023/06/13 05:14:56;;;;;;;4.40;4.03;;;18.60;81.20;;;;;;4969873;28;20046;-77
2023/06/13 05:17:21;;;;;;;3.67;3.47;;;18.70;81.30;;;;;;4989226;28;20140;-77
2023/06/13 05:19:47;;;;;;;3.67;3.45;;;18.60;82.30;;;;;;5003091;28;20056;-77
2023/06/13 05:22:13;;;;;;;3.40;3.20;;;18.70;81.50;;;;;;5003134;28;20057;-77
2023/06/13 05:24:38;;;;;;;3.83;3.63;;;18.60;81.30;;;;;;5000264;28;20046;-77
2023/06/13 05:27:04;;;;;;;3.40;3.10;;;18.70;81.50;;;;;;4998697;28;20566;-77
2023/06/13 05:29:30;;;;;;;3.80;3.42;;;18.60;82.00;;;;;;4989147;28;20046;-77
2023/06/13 05:31:57;;;;;;;4.30;4.00;;;18.60;81.80;;;;;;5000881;28;20435;-77
2023/06/13 05:34:23;;;;;;;3.42;3.22;;;18.60;81.90;;;;;;5001209;28;20053;-77
2023/06/13 05:36:48;;;;;;;3.60;3.40;;;18.60;81.90;;;;;;5003311;28;20051;-78
2023/06/13 05:39:15;;;;;;;3.35;3.08;;;18.60;82.00;;;;;;4986619;28;20063;-77
2023/06/13 05:41:40;;;;;;;3.58;3.22;;;18.70;81.80;;;;;;4984658;28;20530;-78
2023/06/13 05:44:06;;;;;;;3.28;3.08;;;18.70;82.00;;;;;;4987578;28;20038;-77
2023/06/13 05:46:32;;;;;;;5.88;3.50;;;18.70;82.10;;;;;;5002873;28;20038;-78
2023/06/13 05:48:58;;;;;;;3.40;3.20;;;18.70;82.00;;;;;;5000526;28;20046;-77
2023/06/13 05:51:23;;;;;;;4.15;3.75;;;18.70;81.90;;;;;;4999892;28;20041;-77
2023/06/13 05:53:50;;;;;;;3.45;3.25;;;18.70;82.40;;;;;;5004272;28;20046;-78
2023/06/13 05:56:16;;;;;;;3.35;3.15;;;18.60;82.30;;;;;;5002647;28;20054;-78
2023/06/13 05:58:41;;;;;;;3.50;3.30;;;18.60;82.70;;;;;;5002361;28;20188;-77
2023/06/13 06:01:10;;;;;;;3.70;3.50;;;18.60;82.80;;;;;;5002894;28;20419;-77
2023/06/13 06:03:36;;;;;;;3.45;3.25;;;18.60;82.40;;;;;;5015768;28;20041;-77
2023/06/13 06:06:01;;;;;;;3.40;3.20;;;18.60;82.40;;;;;;5002426;28;20045;-77
2023/06/13 06:08:28;;;;;;;3.50;3.30;;;18.70;82.40;;;;;;5003886;28;20128;-77
2023/06/13 06:10:53;;;;;;;3.42;3.22;;;18.60;82.60;;;;;;4998037;28;20405;-77
2023/06/13 06:13:19;;;;;;;3.90;3.40;;;18.60;82.80;;;;;;5003673;28;20138;-77
2023/06/13 06:15:44;;;;;;;3.30;3.08;;;18.60;82.60;;;;;;5001946;28;20447;-77
2023/06/13 06:18:10;;;;;;;3.25;3.00;;;18.60;82.80;;;;;;5004386;28;20060;-77
2023/06/13 06:20:36;;;;;;;2.92;2.83;;;18.70;82.90;;;;;;5000223;28;20103;-77
2023/06/13 06:23:01;;;;;;;3.40;3.20;;;18.70;83.70;;;;;;4987434;28;20053;-77
2023/06/13 06:25:27;;;;;;;3.50;3.30;;;18.70;82.50;;;;;;5002749;28;20415;-77
2023/06/13 06:27:52;;;;;;;3.25;3.05;;;18.70;82.70;;;;;;4998304;28;20121;-77
2023/06/13 06:30:18;;;;;;;2.85;2.60;;;18.80;82.50;;;;;;5001849;28;20052;-77
2023/06/13 06:32:43;;;;;;;2.65;2.55;;;18.80;82.20;;;;;;5003126;28;20058;-78
2023/06/13 06:35:10;;;;;;;3.10;2.90;;;18.70;82.70;;;;;;5000659;28;20115;-78
2023/06/13 06:37:36;;;;;;;3.55;3.35;;;18.70;82.90;;;;;;4983255;28;20133;-77
2023/06/13 06:40:01;;;;;;;3.28;3.10;;;18.70;82.70;;;;;;5000716;28;20419;-77
2023/06/13 06:42:27;;;;;;;3.17;3.08;;;18.80;82.40;;;;;;4992459;28;20046;-80
2023/06/13 06:44:53;;;;;;;2.83;2.72;;;18.80;82.90;;;;;;4981381;28;20050;-80
2023/06/13 06:47:18;;;;;;;2.83;2.70;;;18.80;82.90;;;;;;4964890;28;20049;-79
2023/06/13 06:49:44;;;;;;;2.35;2.25;;;19.00;82.20;;;;;;4976132;28;20133;-78
2023/06/13 06:52:10;;;;;;;2.20;2.10;;;19.20;82.30;;;;;;4980584;28;20047;-80
2023/06/13 06:54:36;;;;;;;2.58;2.47;;;19.50;80.50;;;;;;4979121;28;20044;-80
2023/06/13 06:57:05;;;;;;;2.70;2.60;;;19.40;80.40;;;;;;4960348;28;20034;-79
2023/06/13 06:59:31;;;;;;;2.47;2.28;;;19.60;80.00;;;;;;5003078;28;20492;-79
2023/06/13 07:01:56;;;;;;;3.42;3.22;;;19.60;79.90;;;;;;4983524;28;20034;-79
2023/06/13 07:04:22;;;;;;;2.80;2.60;;;19.70;79.40;;;;;;4986071;28;20113;-80
2023/06/13 07:06:48;;;;;;;2.65;2.55;;;19.80;79.40;;;;;;4984510;28;20553;-80
2023/06/13 07:09:14;;;;;;;2.70;2.50;;;19.80;79.00;;;;;;5005868;28;20049;-79
2023/06/13 07:11:39;;;;;;;3.05;2.95;;;19.80;79.30;;;;;;5003148;28;20042;-79
2023/06/13 07:14:05;;;;;;;2.42;2.33;;;19.80;79.20;;;;;;5001772;28;20500;-80
2023/06/13 07:16:30;;;;;;;2.45;2.35;;;19.80;80.20;;;;;;5005176;28;20034;-81
2023/06/13 07:18:56;;;;;;;2.60;2.50;;;19.80;79.30;;;;;;4998172;28;20512;-82
2023/06/13 07:21:21;;;;;;;2.55;2.45;;;19.80;79.20;;;;;;5014161;28;20789;-82
2023/06/13 07:23:47;;;;;;;2.97;2.85;;;19.90;79.00;;;;;;5007117;28;20041;-83
2023/06/13 07:26:14;;;;;;;2.78;2.67;;;19.90;78.70;;;;;;5006660;28;20065;-82
2023/06/13 07:28:39;;;;;;;3.30;3.10;;;19.90;78.90;;;;;;5003432;28;20069;-79
2023/06/13 07:31:05;;;;;;;2.78;2.67;;;19.90;79.00;;;;;;4996197;28;20072;-79
2023/06/13 07:33:31;;;;;;;3.22;3.03;;;19.90;79.00;;;;;;5009412;28;20781;-79
2023/06/13 07:35:57;;;;;;;3.13;2.75;;;20.00;79.40;;;;;;5001419;28;20121;-80
2023/06/13 07:38:23;;;;;;;3.10;2.80;;;19.90;79.40;;;;;;5022682;28;20504;-80
2023/06/13 07:40:49;;;;;;;2.70;2.50;;;20.00;78.90;;;;;;5006807;28;20057;-80
2023/06/13 07:43:15;;;;;;;2.55;2.45;;;20.00;79.10;;;;;;5001589;28;20499;-79
2023/06/13 07:45:40;;;;;;;2.70;2.60;;;20.00;79.00;;;;;;4987052;28;20056;-79
2023/06/13 07:48:06;;;;;;;2.78;2.67;;;20.00;78.80;;;;;;4995981;28;20034;-79
2023/06/13 07:50:31;;;;;;;2.97;2.88;;;20.10;78.90;;;;;;4976704;28;20133;-80
2023/06/13 07:52:57;;;;;;;2.70;2.60;;;20.10;79.20;;;;;;5003305;28;20136;-80
2023/06/13 07:55:23;;;;;;;2.50;2.40;;;20.10;79.20;;;;;;5006576;28;20088;-79
2023/06/13 07:57:48;;;;;;;2.72;2.63;;;20.00;79.00;;;;;;4992488;28;20057;-80
2023/06/13 08:00:17;;;;;;;3.00;2.80;;;20.10;79.00;;;;;;4985372;28;20074;-79
2023/06/13 08:02:44;;;;;;;2.83;2.63;;;20.10;78.80;;;;;;4993694;28;20050;-79
2023/06/13 08:05:10;;;;;;;2.42;2.33;;;20.10;78.40;;;;;;4994261;28;20585;-80
2023/06/13 08:07:36;;;;;;;2.47;2.38;;;20.20;78.40;;;;;;5001496;28;20038;-79
2023/06/13 08:10:01;;;;;;;2.50;2.40;;;20.20;78.40;;;;;;5004882;28;20042;-79
2023/06/13 08:12:27;;;;;;;2.78;2.58;;;20.20;78.30;;;;;;5003681;28;20049;-79
2023/06/13 08:14:53;;;;;;;2.83;2.67;;;20.30;78.60;;;;;;5003671;28;20078;-79
2023/06/13 08:17:19;;;;;;;3.38;3.10;;;20.30;78.60;;;;;;5005870;28;20108;-79
2023/06/13 08:19:48;;;;;;;2.42;2.33;;;20.30;78.50;;;;;;5004424;28;20030;-79
2023/06/13 08:22:15;;;;;;;2.75;2.55;;;20.40;78.30;;;;;;5001806;28;20161;-80
2023/06/13 08:24:40;;;;;;;2.33;2.22;;;20.50;78.20;;;;;;5004356;28;20120;-79
2023/06/13 08:27:10;;;;;;;2.75;2.58;;;20.40;78.40;;;;;;5004640;28;20444;-79
2023/06/13 08:29:36;;;;;;;3.03;2.83;;;20.40;78.20;;;;;;5005604;28;20050;-79
2023/06/13 08:32:01;;;;;;;2.50;2.40;;;20.50;78.10;;;;;;5002322;28;20442;-81
2023/06/13 08:34:27;;;;;;;2.42;2.33;;;20.50;78.10;;;;;;5003956;28;20045;-79
2023/06/13 08:36:53;;;;;;;2.67;2.47;;;20.60;78.00;;;;;;5000648;28;20415;-79
2023/06/13 08:39:19;;;;;;;2.50;2.30;;;20.60;78.30;;;;;;5003877;28;20138;-79
2023/06/13 08:41:45;;;;;;;2.47;2.38;;;20.70;78.30;;;;;;5005172;28;20557;-80
2023/06/13 08:44:11;;;;;;;2.67;2.47;;;20.60;78.40;;;;;;5002995;28;20049;-80
2023/06/13 08:46:36;;;;;;;2.40;2.30;;;20.70;78.80;;;;;;5006433;28;20485;-79
2023/06/13 08:49:03;;;;;;;2.50;2.28;;;20.70;78.40;;;;;;5004216;28;20495;-85
2023/06/13 08:51:31;;;;;;;2.42;2.03;;;20.70;78.40;;;;;;5000014;28;20108;-79
2023/06/13 08:53:59;;;;;;;2.30;2.20;;;20.70;78.40;;;;;;5004763;28;20042;-79
2023/06/13 08:56:25;;;;;;;2.15;2.05;;;20.70;78.50;;;;;;4991841;28;20038;-79
2023/06/13 08:58:56;;;;;;;2.13;1.92;;;20.70;78.40;;;;;;5017074;28;20034;-80
2023/06/13 09:01:22;;;;;;;1.92;1.77;;;20.70;78.50;;;;;;5000223;28;20816;-79
2023/06/13 09:03:47;;;;;;;2.28;2.17;;;20.70;78.40;;;;;;4999755;28;20689;-79
2023/06/13 09:06:13;;;;;;;1.80;1.70;;;20.70;78.40;;;;;;5015719;28;20523;-78
2023/06/13 09:08:39;;;;;;;2.35;2.10;;;20.80;78.20;;;;;;5005341;28;20054;-78
2023/06/13 09:11:04;;;;;;;2.10;2.00;;;20.80;78.10;;;;;;5000341;28;20135;-79
2023/06/13 09:13:30;;;;;;;2.30;2.10;;;20.90;77.80;;;;;;4988385;28;20049;-79
2023/06/13 09:15:56;;;;;;;3.53;2.30;;;20.90;77.70;;;;;;5002425;28;20048;-79
2023/06/13 09:18:21;;;;;;;2.20;2.10;;;20.90;77.80;;;;;;4988123;28;20045;-80
2023/06/13 09:20:47;;;;;;;2.20;2.10;;;21.00;77.90;;;;;;4991365;28;20038;-79
2023/06/13 09:23:14;;;;;;;1.85;1.80;;;21.00;77.80;;;;;;5003261;28;20038;-79
2023/06/13 09:25:40;;;;;;;2.03;1.92;;;21.00;78.10;;;;;;4986155;28;20065;-79
2023/06/13 09:28:28;;;;;;;2.50;2.40;;;21.00;78.20;;;;;;4984622;28;20574;-79
2023/06/13 09:30:54;;;;;;;2.38;2.28;;;21.10;77.80;;;;;;5000939;28;20045;-79
2023/06/13 09:33:23;;;;;;;1.92;1.80;;;21.10;77.80;;;;;;4997137;28;20042;-79
2023/06/13 09:35:50;;;;;;;2.72;2.00;;;21.10;77.60;;;;;;5013582;28;20042;-79
2023/06/13 09:38:20;;;;;;;1.88;1.77;;;21.10;77.90;;;;;;5001787;28;20507;-79
2023/06/13 09:40:46;;;;;;;1.80;1.70;;;21.00;78.10;;;;;;4998013;28;20132;-78
2023/06/13 09:43:13;;;;;;;1.92;1.83;;;21.00;77.90;;;;;;5001889;28;20140;-79
2023/06/13 09:45:39;;;;;;;1.67;1.60;;;21.10;77.80;;;;;;4984650;28;20053;-79
2023/06/13 09:48:05;;;;;;;2.00;1.90;;;21.10;77.70;;;;;;5002161;28;20128;-79
2023/06/13 09:50:31;;;;;;;1.73;1.63;;;21.10;77.60;;;;;;5003037;28;20096;-79
2023/06/13 09:52:58;;;;;;;1.60;1.60;;;21.10;77.60;;;;;;4986861;28;20045;-80
2023/06/13 09:55:23;;;;;;;1.75;1.65;;;21.10;77.50;;;;;;5015747;28;20042;-80
2023/06/13 09:57:52;;;;;;;1.73;1.67;;;21.10;77.50;;;;;;4985951;28;20096;-80
2023/06/13 10:00:18;;;;;;;1.83;1.73;;;21.20;77.50;;;;;;4981662;28;20092;-80
2023/06/13 10:02:44;;;;;;;1.67;1.67;;;21.20;77.60;;;;;;4986317;28;20088;-79
2023/06/13 10:05:11;;;;;;;1.75;1.65;;;21.20;77.50;;;;;;4997217;28;21539;-80
2023/06/13 10:07:37;;;;;;;1.55;1.55;;;21.20;77.30;;;;;;4998575;28;20045;-79
2023/06/13 10:10:03;;;;;;;2.17;1.42;;;21.20;77.40;;;;;;4999895;28;21504;-79
2023/06/13 10:12:28;;;;;;;1.60;1.50;;;21.20;77.20;;;;;;5014593;28;20095;-80
2023/06/13 10:14:55;;;;;;;1.70;1.70;;;21.20;77.20;;;;;;4987009;28;20419;-80
2023/06/13 10:17:21;;;;;;;1.48;1.48;;;21.20;77.00;;;;;;5001000;28;20052;-80
2023/06/13 10:19:49;;;;;;;1.20;1.20;;;21.20;76.80;;;;;;5002923;28;20034;-80
2023/06/13 10:22:14;;;;;;;1.58;1.58;;;21.30;77.10;;;;;;4985305;28;20083;-80
2023/06/13 10:24:40;;;;;;;1.80;1.70;;;21.30;77.00;;;;;;4984643;28;20119;-80
2023/06/13 10:27:07;;;;;;;1.52;1.52;;;21.30;76.70;;;;;;4987974;28;20054;-80
2023/06/13 10:29:56;;;;;;;1.50;1.50;;;21.30;76.90;;;;;;5000616;28;20057;-80
2023/06/13 10:32:41;;;;;;;1.38;1.27;;;21.30;76.60;;;;;;5002536;28;20050;-80
2023/06/13 10:35:32;;;;;;;1.80;1.70;;;21.40;76.70;;;;;;4999559;28;20065;-79
2023/06/13 10:38:18;;;;;;;1.85;1.67;;;21.40;76.50;;;;;;5000539;28;20042;-79
2023/06/13 10:41:05;;;;;;;1.80;1.70;;;21.40;76.40;;;;;;4987367;28;20109;-79
2023/06/13 10:43:56;;;;;;;1.83;1.63;;;21.40;76.30;;;;;;4999288;28;20065;-79
2023/06/13 10:46:21;;;;;;;5.75;2.25;;;21.50;76.30;;;;;;4985723;28;20061;-79
2023/06/13 10:48:48;;;;;;;4.28;2.53;;;21.50;76.60;;;;;;5017690;28;20748;-79
2023/06/13 10:51:18;;;;;;;2.60;2.40;;;21.50;76.70;;;;;;5000661;28;20053;-78
2023/06/13 10:53:43;;;;;;;2.75;2.55;;;21.60;77.40;;;;;;5001686;28;20049;-78
2023/06/13 10:56:09;;;;;;;2.80;2.60;;;21.60;79.00;;;;;;4997279;28;20041;-78
2023/06/13 10:58:35;;;;;;;2.88;2.70;;;21.60;79.00;;;;;;5002395;28;20065;-78
2023/06/13 11:01:23;;;;;;;2.92;2.72;;;21.70;79.30;;;;;;5006402;28;20042;-77
2023/06/13 11:03:49;;;;;;;62.78;38.35;;;21.80;79.40;;;;;;5002387;28;20046;-78
2023/06/13 11:06:15;;;;;;;47.90;31.33;;;21.90;79.70;;;;;;5001706;28;20054;-80
2023/06/13 11:08:41;;;;;;;27.05;18.70;;;21.90;80.00;;;;;;4642344;28;9999607;-79
2023/06/13 11:11:06;;;;;;;26.25;17.10;;;21.90;79.70;;;;;;4980845;28;20049;-77
2023/06/13 11:13:32;;;;;;;22.23;16.95;;;22.00;80.00;;;;;;4981286;28;20060;-79
2023/06/13 11:16:22;;;;;;;17.90;13.40;;;22.00;79.80;;;;;;4985935;28;20045;-80
2023/06/13 11:18:47;;;;;;;15.95;12.15;;;22.10;78.80;;;;;;4995009;28;20041;-81
2023/06/13 11:21:13;;;;;;;13.88;11.38;;;22.10;78.30;;;;;;4998057;28;20064;-79
2023/06/13 11:23:52;;;;;;;11.93;10.23;;;22.10;77.90;;;;;;5000200;28;20396;-79
2023/06/13 11:26:21;;;;;;;14.45;10.02;;;22.10;77.90;;;;;;4982184;28;20049;-78
2023/06/13 11:28:51;;;;;;;11.05;9.52;;;22.10;77.80;;;;;;4992937;28;20129;-79
2023/06/13 11:31:16;;;;;;;13.32;9.30;;;22.10;77.60;;;;;;4998400;28;20415;-78
2023/06/13 11:33:46;;;;;;;9.70;8.70;;;22.10;77.50;;;;;;4998419;28;20581;-78
2023/06/13 11:36:16;;;;;;;9.90;8.63;;;22.10;77.50;;;;;;5011892;28;20294;-79
2023/06/13 11:38:54;;;;;;;10.63;8.65;;;22.00;77.40;;;;;;5000046;28;20085;-78
2023/06/13 11:41:20;;;;;;;9.38;8.07;;;22.00;77.50;;;;;;5000940;28;20593;-79
2023/06/13 11:43:45;;;;;;;10.85;8.55;;;22.00;77.50;;;;;;4984474;28;20042;-79
2023/06/13 11:46:12;;;;;;;9.02;7.18;;;22.00;77.30;;;;;;4982818;28;20065;-79
2023/06/13 11:48:37;;;;;;;7.72;7.03;;;22.00;77.20;;;;;;5002669;28;20046;-80
2023/06/13 11:51:10;;;;;;;8.60;7.70;;;22.00;77.10;;;;;;5004825;28;20057;-80
2023/06/13 11:53:53;;;;;;;8.40;7.47;;;22.00;77.00;;;;;;5005152;28;20072;-80
2023/06/13 11:56:19;;;;;;;6.70;6.20;;;22.00;76.90;;;;;;5005197;28;20172;-80
2023/06/13 11:58:46;;;;;;;7.90;7.20;;;22.00;76.80;;;;;;5005679;28;20042;-79
2023/06/13 12:01:13;;;;;;;7.70;6.93;;;22.00;76.60;;;;;;5005759;28;20053;-80
2023/06/13 12:03:40;;;;;;;7.53;6.82;;;22.00;76.60;;;;;;5007871;28;20998;-79
2023/06/13 12:06:06;;;;;;;7.88;7.18;;;22.00;76.50;;;;;;5016094;28;20630;-79
2023/06/13 12:08:35;;;;;;;7.20;6.50;;;22.10;76.40;;;;;;5000926;28;20451;-80
2023/06/13 12:11:05;;;;;;;7.07;6.38;;;22.10;76.30;;;;;;5005535;28;20030;-79
2023/06/13 12:13:33;;;;;;;7.15;6.47;;;22.10;76.20;;;;;;5003464;28;20050;-79
2023/06/13 12:15:59;;;;;;;7.10;6.40;;;22.10;76.10;;;;;;5006329;28;20032;-79
2023/06/13 12:18:24;;;;;;;6.60;5.85;;;22.10;76.00;;;;;;5006383;28;20586;-79
2023/06/13 12:20:51;;;;;;;6.40;5.93;;;22.10;75.90;;;;;;5006624;28;20034;-78
2023/06/13 12:23:20;;;;;;;5.93;5.43;;;22.10;75.70;;;;;;5006905;28;20038;-79
2023/06/13 12:25:46;;;;;;;6.20;5.70;;;22.10;75.70;;;;;;4989455;28;20046;-79
2023/06/13 12:28:15;;;;;;;7.32;5.50;;;22.10;75.70;;;;;;5006704;28;20061;-76
2023/06/13 12:30:42;;;;;;;5.40;4.90;;;22.10;75.60;;;;;;5005175;28;20037;-78
2023/06/13 12:33:08;;;;;;;6.00;5.45;;;22.10;75.50;;;;;;5006567;28;20114;-79
2023/06/13 12:35:34;;;;;;;5.50;5.00;;;22.10;75.80;;;;;;4974091;28;20400;-79
2023/06/13 12:38:02;;;;;;;5.88;5.30;;;22.10;75.50;;;;;;5006004;28;20034;-79
2023/06/13 12:40:35;;;;;;;6.07;5.60;;;22.10;75.50;;;;;;5007115;28;20030;-79
2023/06/13 12:43:02;;;;;;;4.45;4.18;;;22.20;75.50;;;;;;5004193;28;20037;-78
2023/06/13 12:45:31;;;;;;;5.10;4.78;;;22.20;75.40;;;;;;5003791;28;20035;-77
2023/06/13 12:47:57;;;;;;;5.05;4.68;;;22.20;75.40;;;;;;4989970;28;20127;-78